Time;durP1;ratioP1;P1;durP2;ratioP2;P2;SDS_P1;SDS_P2;PMS_P1;PMS_P2;Temp;Humidity;BMP_temperature;BMP_pressure;BME280_temperature;BME280_humidity;BME280_pressure;Samples;Min_cycle;Max_cycle;Signal;HPM_P1;HPM_P2
2021/08/18 00:02:26;;;;;;;;;;;12.70;95.30;;;;;;5098443;28;20299;-65
2021/08/18 00:04:54;;;;;;;;;;;12.80;95.20;;;;;;5095938;28;19908;-67
2021/08/18 00:07:22;;;;;;;;;;;12.90;95.10;;;;;;5094953;28;19985;-68
2021/08/18 00:09:51;;;;;;;;;;;13.00;95.20;;;;;;5094740;28;19915;-67
2021/08/18 00:12:18;;;;;;;;;;;13.10;95.30;;;;;;5092081;28;19908;-66
2021/08/18 00:14:45;;;;;;;;;;;13.10;95.20;;;;;;5094487;28;19958;-66
2021/08/18 00:17:12;;;;;;;;;;;13.20;95.30;;;;;;5094192;28;20316;-67
2021/08/18 00:19:38;;;;;;;;;;;13.20;95.70;;;;;;5093980;28;19912;-66
2021/08/18 00:22:05;;;;;;;;;;;13.20;95.70;;;;;;5093956;28;19912;-65
2021/08/18 00:24:32;;;;;;;;;;;13.40;96.00;;;;;;5088423;28;19916;-66
2021/08/18 00:26:59;;;;;;;;;;;13.50;96.70;;;;;;5093884;28;19915;-66
2021/08/18 00:29:25;;;;;;;;;;;13.60;96.20;;;;;;5094317;28;19912;-66
2021/08/18 00:31:52;;;;;;;;;;;13.70;96.20;;;;;;5091931;28;19916;-66
2021/08/18 00:34:19;;;;;;;;;;;13.70;96.30;;;;;;5094056;28;20351;-67
2021/08/18 00:36:45;;;;;;;;;;;13.70;96.50;;;;;;5093635;28;19927;-66
2021/08/18 00:39:12;;;;;;;;;;;13.70;96.10;;;;;;5093726;28;19916;-67
2021/08/18 00:41:39;;;;;;;;;;;13.90;96.90;;;;;;5093221;28;19908;-66
2021/08/18 00:44:06;;;;;;;;;;;14.00;97.00;;;;;;5093744;28;19919;-65
2021/08/18 00:46:39;;;;;;;;;;;14.00;97.00;;;;;;5093323;28;19928;-67
2021/08/18 00:49:06;;;;;;;;;;;13.90;96.70;;;;;;5093819;28;19953;-65
2021/08/18 00:51:33;;;;;;;;;;;13.80;96.90;;;;;;5093527;28;19915;-67
2021/08/18 00:53:59;;;;;;;;;;;13.80;97.10;;;;;;5093311;28;19909;-67
2021/08/18 00:56:26;;;;;;;;;;;13.80;96.70;;;;;;5075561;28;19920;-66
2021/08/18 00:58:53;;;;;;;;;;;13.90;96.70;;;;;;5093454;28;19972;-66
2021/08/18 01:01:19;;;;;;;;;;;13.90;96.60;;;;;;5093497;28;19955;-64
2021/08/18 01:03:46;;;;;;;;;;;14.20;96.70;;;;;;5093145;28;19908;-65
2021/08/18 01:06:12;;;;;;;;;;;14.30;96.00;;;;;;5093508;28;19908;-65
2021/08/18 01:08:39;;;;;;;;;;;14.30;96.00;;;;;;5093359;28;19908;-66
2021/08/18 01:11:06;;;;;;;;;;;14.40;95.80;;;;;;5093449;28;19912;-64
2021/08/18 01:13:33;;;;;;;;;;;14.40;95.60;;;;;;5093376;28;19909;-66
2021/08/18 01:15:59;;;;;;;;;;;14.60;95.40;;;;;;5093069;28;20323;-66
2021/08/18 01:18:26;;;;;;;;;;;14.90;95.10;;;;;;5093118;28;20359;-66
2021/08/18 01:20:53;;;;;;;;;;;15.20;94.30;;;;;;5093260;28;19908;-65
2021/08/18 01:23:19;;;;;;;;;;;15.30;94.30;;;;;;5092954;28;19908;-65
2021/08/18 01:25:46;;;;;;;;;;;15.60;93.60;;;;;;5092871;28;19908;-66
2021/08/18 01:28:13;;;;;;;;;;;15.70;93.40;;;;;;5093084;28;19915;-65
2021/08/18 01:30:41;;;;;;;;;;;15.70;93.60;;;;;;5092901;28;19999;-65
2021/08/18 01:33:10;;;;;;;;;;;15.70;93.60;;;;;;5092899;28;20320;-65
2021/08/18 01:35:39;;;;;;;;;;;15.50;93.50;;;;;;5093012;28;19915;-66
2021/08/18 01:38:07;;;;;;;;;;;15.50;93.30;;;;;;5093223;28;19916;-65
2021/08/18 01:40:34;;;;;;;;;;;15.60;93.50;;;;;;5093297;28;19927;-67
2021/08/18 01:43:01;;;;;;;;;;;15.60;93.20;;;;;;5093036;28;19912;-67
2021/08/18 01:45:27;;;;;;;;;;;15.60;93.00;;;;;;5093129;28;19955;-67
2021/08/18 01:47:54;;;;;;;;;;;15.60;92.60;;;;;;5092759;28;19920;-66
2021/08/18 01:50:21;;;;;;;;;;;15.50;93.00;;;;;;5094552;28;19991;-66
2021/08/18 01:52:49;;;;;;;;;;;15.50;92.70;;;;;;5094066;28;19931;-66
2021/08/18 01:55:15;;;;;;;;;;;15.50;92.80;;;;;;5092427;28;20007;-65
2021/08/18 01:57:43;;;;;;;;;;;15.50;92.70;;;;;;5092800;28;19959;-66
2021/08/18 02:00:10;;;;;;;;;;;15.60;92.70;;;;;;5093839;28;19969;-65
2021/08/18 02:02:36;;;;;;;;;;;15.70;92.30;;;;;;5093095;28;19912;-64
2021/08/18 02:05:03;;;;;;;;;;;15.60;92.20;;;;;;5092747;28;19919;-65
2021/08/18 02:07:30;;;;;;;;;;;15.60;91.70;;;;;;5092303;28;19908;-65
2021/08/18 02:09:56;;;;;;;;;;;15.70;91.90;;;;;;5092312;28;19908;-66
2021/08/18 02:12:23;;;;;;;;;;;15.70;91.80;;;;;;5092160;28;19994;-66
2021/08/18 02:14:50;;;;;;;;;;;15.60;91.90;;;;;;5092409;28;20256;-66
2021/08/18 02:17:16;;;;;;;;;;;15.50;91.80;;;;;;5092453;28;19912;-66
2021/08/18 02:19:43;;;;;;;;;;;15.40;92.20;;;;;;5092236;28;19912;-66
2021/08/18 02:22:10;;;;;;;;;;;15.40;92.40;;;;;;5092473;28;20443;-65
2021/08/18 02:24:37;;;;;;;;;;;15.70;92.20;;;;;;5092194;28;19935;-66
2021/08/18 02:27:04;;;;;;;;;;;15.70;91.90;;;;;;5092295;28;19961;-65
2021/08/18 02:29:31;;;;;;;;;;;16.00;91.60;;;;;;5092050;28;19909;-66
2021/08/18 02:31:58;;;;;;;;;;;16.10;90.90;;;;;;5092163;28;19908;-66
2021/08/18 02:34:24;;;;;;;;;;;16.10;91.10;;;;;;5092861;28;19909;-67
2021/08/18 02:36:51;;;;;;;;;;;16.10;90.90;;;;;;5096058;28;20420;-66
2021/08/18 02:39:18;;;;;;;;;;;16.00;90.70;;;;;;5096232;28;20057;-66
2021/08/18 02:41:44;;;;;;;;;;;16.10;91.30;;;;;;5096098;28;20362;-67
2021/08/18 02:44:11;;;;;;;;;;;16.00;91.00;;;;;;5096341;28;19953;-66
2021/08/18 02:46:38;;;;;;;;;;;16.10;91.10;;;;;;5095795;28;19955;-67
2021/08/18 02:49:04;;;;;;;;;;;15.90;91.00;;;;;;5096202;28;19916;-66
2021/08/18 02:51:31;;;;;;;;;;;15.90;90.80;;;;;;5095796;28;20278;-66
2021/08/18 02:53:58;;;;;;;;;;;15.90;90.90;;;;;;5095802;28;19908;-66
2021/08/18 02:56:24;;;;;;;;;;;16.00;90.90;;;;;;5095783;28;19908;-66
2021/08/18 02:58:51;;;;;;;;;;;15.90;90.80;;;;;;5096134;28;19916;-65
2021/08/18 03:01:18;;;;;;;;;;;15.80;91.00;;;;;;5077803;28;20360;-65
2021/08/18 03:03:44;;;;;;;;;;;15.80;91.20;;;;;;5095846;28;19919;-65
2021/08/18 03:06:11;;;;;;;;;;;15.90;90.90;;;;;;5095890;28;19947;-65
2021/08/18 03:08:38;;;;;;;;;;;15.90;91.40;;;;;;5095690;28;19961;-65
2021/08/18 03:11:04;;;;;;;;;;;15.90;92.70;;;;;;5095588;28;19912;-65
2021/08/18 03:13:31;;;;;;;;;;;16.10;92.90;;;;;;5095625;28;20002;-66
2021/08/18 03:15:57;;;;;;;;;;;16.10;92.90;;;;;;5095838;28;19948;-65
2021/08/18 03:18:24;;;;;;;;;;;16.00;93.50;;;;;;5095740;28;19912;-67
2021/08/18 03:20:51;;;;;;;;;;;16.10;93.60;;;;;;5095405;28;20008;-65
2021/08/18 03:23:17;;;;;;;;;;;16.10;93.40;;;;;;5095188;28;19908;-66
2021/08/18 03:25:44;;;;;;;;;;;16.20;93.20;;;;;;5095389;28;20343;-66
2021/08/18 03:28:11;;;;;;;;;;;16.00;93.60;;;;;;5095236;28;20358;-66
2021/08/18 03:30:37;;;;;;;;;;;15.90;94.30;;;;;;5095243;28;20251;-66
2021/08/18 03:33:04;;;;;;;;;;;15.80;94.40;;;;;;5095398;28;19915;-66
2021/08/18 03:35:31;;;;;;;;;;;15.80;94.30;;;;;;5095123;28;19919;-66
2021/08/18 03:37:57;;;;;;;;;;;15.90;94.60;;;;;;5095346;28;19917;-67
2021/08/18 03:40:24;;;;;;;;;;;15.80;94.50;;;;;;5095155;28;19908;-66
2021/08/18 03:42:50;;;;;;;;;;;15.80;94.30;;;;;;5095298;28;19931;-67
2021/08/18 03:45:17;;;;;;;;;;;15.70;94.40;;;;;;5094670;28;19908;-67
2021/08/18 03:47:44;;;;;;;;;;;15.70;94.20;;;;;;5093657;28;19943;-66
2021/08/18 03:50:10;;;;;;;;;;;15.80;94.20;;;;;;5095147;28;19947;-66
2021/08/18 03:52:38;;;;;;;;;;;15.70;93.90;;;;;;5094920;28;19915;-66
2021/08/18 03:55:05;;;;;;;;;;;15.70;94.10;;;;;;5094776;28;19912;-67
2021/08/18 03:57:32;;;;;;;;;;;15.70;93.70;;;;;;5094788;28;19970;-67
2021/08/18 03:59:59;;;;;;;;;;;15.70;93.80;;;;;;5094879;28;20389;-66
2021/08/18 04:02:26;;;;;;;;;;;15.70;94.20;;;;;;5094579;28;19998;-66
2021/08/18 04:04:53;;;;;;;;;;;15.70;94.10;;;;;;5094653;28;19912;-66
2021/08/18 04:07:20;;;;;;;;;;;15.70;94.00;;;;;;5094526;28;19912;-66
2021/08/18 04:09:46;;;;;;;;;;;15.90;93.40;;;;;;5094483;28;19908;-67
2021/08/18 04:12:13;;;;;;;;;;;16.00;93.30;;;;;;5094373;28;20334;-66
2021/08/18 04:14:40;;;;;;;;;;;16.00;93.30;;;;;;5094690;28;19947;-67
2021/08/18 04:17:07;;;;;;;;;;;16.20;93.50;;;;;;5076627;28;19958;-67
2021/08/18 04:19:36;;;;;;;;;;;16.10;93.20;;;;;;5094391;28;19916;-66
2021/08/18 04:22:04;;;;;;;;;;;16.10;93.70;;;;;;5094394;28;19961;-67
2021/08/18 04:24:30;;;;;;;;;;;16.10;93.60;;;;;;5094175;28;19911;-68
2021/08/18 04:26:57;;;;;;;;;;;15.80;93.60;;;;;;5094391;28;19962;-65
2021/08/18 04:29:24;;;;;;;;;;;15.70;93.90;;;;;;5094115;28;20041;-65
2021/08/18 04:31:50;;;;;;;;;;;15.60;94.60;;;;;;5094016;28;19944;-65
2021/08/18 04:34:17;;;;;;;;;;;15.70;94.60;;;;;;5094229;28;19908;-65
2021/08/18 04:36:44;;;;;;;;;;;15.70;94.20;;;;;;5093836;28;19954;-65
2021/08/18 04:39:11;;;;;;;;;;;15.70;94.00;;;;;;5093998;28;20298;-66
2021/08/18 04:41:37;;;;;;;;;;;15.80;94.30;;;;;;5094021;28;19973;-65
2021/08/18 04:44:04;;;;;;;;;;;15.80;94.40;;;;;;5093813;28;19908;-65
2021/08/18 04:46:31;;;;;;;;;;;15.80;94.40;;;;;;5093771;28;20387;-66
2021/08/18 04:48:58;;;;;;;;;;;15.80;94.20;;;;;;5092904;28;19950;-67
2021/08/18 04:51:27;;;;;;;;;;;15.80;94.30;;;;;;5089433;28;19961;-66
2021/08/18 04:53:54;;;;;;;;;;;15.70;94.10;;;;;;5085568;28;19999;-66
2021/08/18 04:56:20;;;;;;;;;;;15.70;94.00;;;;;;5093310;28;20412;-66
2021/08/18 04:58:47;;;;;;;;;;;15.70;94.30;;;;;;5093112;28;19963;-66
2021/08/18 05:01:14;;;;;;;;;;;15.60;94.50;;;;;;5093751;28;19912;-65
2021/08/18 05:03:40;;;;;;;;;;;15.80;94.10;;;;;;5093524;28;19908;-67
2021/08/18 05:06:07;;;;;;;;;;;15.80;94.10;;;;;;5093265;28;19912;-67
2021/08/18 05:08:34;;;;;;;;;;;15.80;93.80;;;;;;5093318;28;19908;-66
2021/08/18 05:11:00;;;;;;;;;;;15.80;94.40;;;;;;5093519;28;20259;-66
2021/08/18 05:13:27;;;;;;;;;;;15.70;94.50;;;;;;5093378;28;19923;-65
2021/08/18 05:15:54;;;;;;;;;;;15.70;94.70;;;;;;5093269;28;19908;-65
2021/08/18 05:18:20;;;;;;;;;;;15.70;94.70;;;;;;5092060;28;19927;-65
2021/08/18 05:20:47;;;;;;;;;;;15.80;94.40;;;;;;5092322;28;19922;-66
2021/08/18 05:23:14;;;;;;;;;;;15.70;94.60;;;;;;5093195;28;20020;-66
2021/08/18 05:25:40;;;;;;;;;;;15.70;94.00;;;;;;5092896;28;20004;-66
2021/08/18 05:28:10;;;;;;;;;;;15.70;94.20;;;;;;5093335;28;19915;-65
2021/08/18 05:30:36;;;;;;;;;;;15.70;94.50;;;;;;5093136;28;20449;-66
2021/08/18 05:33:03;;;;;;;;;;;15.70;95.00;;;;;;5093028;28;19946;-66
2021/08/18 05:35:30;;;;;;;;;;;15.70;94.80;;;;;;5092894;28;20328;-66
2021/08/18 05:37:56;;;;;;;;;;;15.70;94.90;;;;;;5092891;28;19916;-66
2021/08/18 05:40:23;;;;;;;;;;;15.70;94.90;;;;;;5093059;28;20282;-66
2021/08/18 05:42:50;;;;;;;;;;;15.70;94.80;;;;;;5093098;28;20295;-66
2021/08/18 05:45:17;;;;;;;;;;;15.70;94.70;;;;;;5092992;28;20362;-65
2021/08/18 05:47:43;;;;;;;;;;;15.70;95.00;;;;;;5091178;28;19974;-66
2021/08/18 05:50:11;;;;;;;;;;;15.70;94.70;;;;;;5092868;28;19953;-66
2021/08/18 05:52:37;;;;;;;;;;;15.80;93.80;;;;;;5092624;28;19944;-65
2021/08/18 05:55:05;;;;;;;;;;;15.70;94.20;;;;;;5092635;28;20273;-65
2021/08/18 05:57:31;;;;;;;;;;;15.70;94.10;;;;;;5092375;28;19908;-66
2021/08/18 05:59:58;;;;;;;;;;;15.70;94.30;;;;;;5086930;28;19912;-65
2021/08/18 06:02:25;;;;;;;;;;;15.60;94.30;;;;;;5092369;28;19944;-66
2021/08/18 06:04:51;;;;;;;;;;;15.60;94.00;;;;;;5092738;28;19951;-65
2021/08/18 06:07:18;;;;;;;;;;;15.60;93.80;;;;;;5092164;28;19958;-66
2021/08/18 06:09:45;;;;;;;;;;;15.50;94.00;;;;;;5091604;28;19915;-66
2021/08/18 06:12:11;;;;;;;;;;;15.60;94.00;;;;;;5092503;28;19908;-64
2021/08/18 06:14:38;;;;;;;;;;;15.50;94.30;;;;;;5092384;28;19915;-65
2021/08/18 06:17:05;;;;;;;;;;;15.50;94.20;;;;;;5092330;28;19908;-65
2021/08/18 06:19:31;;;;;;;;;;;15.50;94.30;;;;;;5092009;28;19995;-65
2021/08/18 06:22:01;;;;;;;;;;;15.50;94.00;;;;;;5092224;28;19909;-65
2021/08/18 06:24:29;;;;;;;;;;;15.50;94.40;;;;;;5074865;28;20363;-66
2021/08/18 06:26:57;;;;;;;;;;;15.40;94.50;;;;;;5092514;28;19995;-66
2021/08/18 06:29:24;;;;;;;;;;;15.40;94.40;;;;;;5092255;28;19969;-66
2021/08/18 06:31:52;;;;;;;;;;;15.40;94.40;;;;;;5092039;28;19954;-66
2021/08/18 06:34:19;;;;;;;;;;;15.30;94.40;;;;;;5092176;28;19931;-65
2021/08/18 06:36:46;;;;;;;;;;;15.20;94.30;;;;;;5091981;28;19935;-67
2021/08/18 06:39:12;;;;;;;;;;;15.30;94.50;;;;;;5092187;28;19916;-65
2021/08/18 06:41:39;;;;;;;;;;;15.20;94.80;;;;;;5092093;28;20278;-66
2021/08/18 06:44:05;;;;;;;;;;;15.20;95.10;;;;;;5092313;28;19912;-66
2021/08/18 06:46:32;;;;;;;;;;;15.20;95.10;;;;;;5091830;28;19917;-65
2021/08/18 06:48:59;;;;;;;;;;;15.10;95.00;;;;;;5092442;28;19915;-67
2021/08/18 06:51:26;;;;;;;;;;;15.10;95.20;;;;;;5090426;28;19916;-65
2021/08/18 06:53:52;;;;;;;;;;;15.10;95.30;;;;;;5089827;28;19908;-67
2021/08/18 06:56:19;;;;;;;;;;;15.10;95.60;;;;;;5089814;28;19908;-66
2021/08/18 06:58:45;;;;;;;;;;;15.00;95.30;;;;;;5089750;28;19920;-67
2021/08/18 07:01:12;;;;;;;;;;;15.00;94.90;;;;;;5089706;28;19912;-66
2021/08/18 07:03:39;;;;;;;;;;;15.00;95.00;;;;;;5089526;28;20437;-66
2021/08/18 07:06:07;;;;;;;;;;;14.90;95.10;;;;;;5089586;28;19912;-66
2021/08/18 07:08:33;;;;;;;;;;;14.90;95.20;;;;;;5089801;28;20397;-65
2021/08/18 07:11:00;;;;;;;;;;;14.80;95.60;;;;;;5089778;28;19908;-66
2021/08/18 07:13:27;;;;;;;;;;;14.90;95.50;;;;;;5089783;28;19912;-66
2021/08/18 07:15:53;;;;;;;;;;;14.80;95.60;;;;;;5071633;28;19912;-66
2021/08/18 07:18:22;;;;;;;;;;;14.80;95.80;;;;;;5089247;28;19920;-65
2021/08/18 07:20:49;;;;;;;;;;;14.80;95.90;;;;;;5073470;28;19919;-65
2021/08/18 07:23:16;;;;;;;;;;;14.70;96.00;;;;;;5093236;28;19913;-66
2021/08/18 07:25:43;;;;;;;;;;;14.70;96.00;;;;;;5074915;28;19968;-66
2021/08/18 07:28:09;;;;;;;;;;;14.70;96.00;;;;;;5093582;28;20003;-66
2021/08/18 07:30:36;;;;;;;;;;;14.70;96.10;;;;;;5092934;28;19916;-66
2021/08/18 07:33:03;;;;;;;;;;;14.60;96.20;;;;;;5093322;28;19912;-67
2021/08/18 07:35:29;;;;;;;;;;;14.60;95.90;;;;;;5092983;28;19912;-67
2021/08/18 07:37:56;;;;;;;;;;;14.60;96.10;;;;;;5093097;28;19916;-67
2021/08/18 07:40:23;;;;;;;;;;;14.60;96.00;;;;;;5093029;28;19934;-66
2021/08/18 07:42:52;;;;;;;;;;;14.60;96.10;;;;;;5092932;28;19946;-67
2021/08/18 07:45:19;;;;;;;;;;;14.60;95.90;;;;;;5092604;28;19912;-66
2021/08/18 07:47:45;;;;;;;;;;;14.60;96.20;;;;;;5092416;28;20486;-65
2021/08/18 07:50:12;;;;;;;;;;;14.60;96.40;;;;;;5074890;28;20338;-65
2021/08/18 07:52:39;;;;;;;;;;;14.50;96.10;;;;;;5092781;28;19912;-66
2021/08/18 07:55:07;;;;;;;;;;;14.50;96.00;;;;;;5092867;28;20003;-66
2021/08/18 07:57:34;;;;;;;;;;;14.50;96.30;;;;;;5092265;28;19954;-66
2021/08/18 08:00:05;;;;;;;;;;;14.50;96.40;;;;;;5092423;28;19912;-65
2021/08/18 08:02:32;;;;;;;;;;;14.50;96.40;;;;;;5092645;28;19948;-66
2021/08/18 08:04:59;;;;;;;;;;;14.50;96.30;;;;;;5074566;28;19908;-66
2021/08/18 08:07:25;;;;;;;;;;;14.40;96.60;;;;;;5092407;28;19912;-66
2021/08/18 08:09:52;;;;;;;;;;;14.40;96.50;;;;;;5091961;28;20391;-65
2021/08/18 08:12:19;;;;;;;;;;;14.40;96.70;;;;;;5092231;28;19932;-65
2021/08/18 08:14:45;;;;;;;;;;;14.40;96.80;;;;;;5092257;28;19912;-65
2021/08/18 08:17:12;;;;;;;;;;;14.40;96.70;;;;;;5092303;28;19912;-66
2021/08/18 08:19:39;;;;;;;;;;;14.40;96.80;;;;;;5092018;28;20097;-66
2021/08/18 08:22:05;;;;;;;;;;;14.40;96.80;;;;;;5073995;28;19912;-66
2021/08/18 08:24:32;;;;;;;;;;;14.30;96.80;;;;;;5091905;28;19930;-66
2021/08/18 08:26:59;;;;;;;;;;;14.30;96.80;;;;;;5091883;28;19916;-66
2021/08/18 08:29:25;;;;;;;;;;;14.30;97.10;;;;;;5092110;28;19908;-66
2021/08/18 08:31:52;;;;;;;;;;;14.30;97.00;;;;;;5091330;28;19961;-65
2021/08/18 08:34:19;;;;;;;;;;;14.30;97.00;;;;;;5092588;28;19917;-66
2021/08/18 08:36:46;;;;;;;;;;;14.30;97.10;;;;;;5091557;28;19948;-66
2021/08/18 08:39:12;;;;;;;;;;;14.20;97.10;;;;;;5091906;28;20010;-66
2021/08/18 08:41:41;;;;;;;;;;;14.20;97.40;;;;;;5091882;28;20377;-65
2021/08/18 08:44:07;;;;;;;;;;;14.20;97.10;;;;;;5092017;28;19912;-65
2021/08/18 08:46:34;;;;;;;;;;;14.20;97.40;;;;;;5091750;28;20588;-65
2021/08/18 08:49:01;;;;;;;;;;;14.20;97.30;;;;;;5091410;28;20011;-66
2021/08/18 08:51:28;;;;;;;;;;;14.20;97.50;;;;;;5091719;28;19916;-67
2021/08/18 08:53:55;;;;;;;;;;;14.10;97.60;;;;;;5073909;28;20008;-66
2021/08/18 08:56:21;;;;;;;;;;;14.10;97.50;;;;;;5071436;28;20021;-66
2021/08/18 08:58:48;;;;;;;;;;;14.10;97.80;;;;;;5091561;28;19916;-65
2021/08/18 09:01:15;;;;;;;;;;;14.10;97.70;;;;;;5091315;28;20252;-65
2021/08/18 09:03:44;;;;;;;;;;;14.00;97.80;;;;;;5091600;28;19908;-65
2021/08/18 09:06:11;;;;;;;;;;;14.00;97.90;;;;;;5093369;28;20294;-66
2021/08/18 09:08:58;;;;;;;;;;;14.00;98.10;;;;;;5093410;28;19908;-66
2021/08/18 09:11:24;;;;;;;;;;;14.00;97.90;;;;;;5093215;28;19999;-66
2021/08/18 09:13:52;;;;;;;;;;;14.00;98.00;;;;;;5093343;28;19908;-66
2021/08/18 09:16:29;;;;;;;;;;;13.90;97.90;;;;;;5093596;28;20259;-65
2021/08/18 09:18:56;;;;;;;;;;;13.90;97.90;;;;;;5093640;28;19943;-64
2021/08/18 09:21:29;;;;;;;;;;;13.90;98.00;;;;;;5093361;28;19912;-66
2021/08/18 09:24:19;;;;;;;;;;;13.90;98.20;;;;;;5093137;28;20393;-65
2021/08/18 09:26:51;;;;;;;;;;;13.80;98.10;;;;;;5085198;28;19912;-66
2021/08/18 09:29:27;;;;;;;;;;;13.80;98.20;;;;;;5092958;28;19908;-66
2021/08/18 09:31:54;;;;;;;;;;;13.80;98.50;;;;;;5092797;28;19908;-66
2021/08/18 09:34:20;;;;;;;;;;;13.80;98.40;;;;;;5093189;28;19931;-66
2021/08/18 09:36:47;;;;;;;;;;;13.70;98.50;;;;;;5092824;28;19984;-66
2021/08/18 09:39:21;;;;;;;;;;;13.70;98.60;;;;;;5092241;28;20486;-66
2021/08/18 09:41:48;;;;;;;;;;;13.70;98.60;;;;;;5092565;28;19943;-66
2021/08/18 09:44:14;;;;;;;;;;;13.70;98.50;;;;;;5091736;28;19947;-65
2021/08/18 09:46:42;;;;;;;;;;;13.70;98.60;;;;;;5092631;28;19920;-65
2021/08/18 09:49:10;;;;;;;;;;;13.60;98.70;;;;;;5092700;28;19962;-67
2021/08/18 09:51:37;;;;;;;;;;;13.60;98.80;;;;;;5092458;28;20338;-66
2021/08/18 09:54:13;;;;;;;;;;;13.60;98.90;;;;;;5092249;28;19908;-65
2021/08/18 09:56:41;;;;;;;;;;;13.50;98.90;;;;;;5092539;28;20286;-67
2021/08/18 09:59:08;;;;;;;;;;;13.60;99.00;;;;;;5092571;28;19916;-67
2021/08/18 10:01:35;;;;;;;;;;;13.60;98.90;;;;;;5092317;28;19912;-66
2021/08/18 10:04:03;;;;;;;;;;;13.50;99.10;;;;;;5092940;28;19909;-65
2021/08/18 10:06:30;;;;;;;;;;;13.50;98.90;;;;;;5074589;28;20022;-65
2021/08/18 10:08:57;;;;;;;;;;;13.50;99.00;;;;;;5091940;28;19915;-66
2021/08/18 10:11:27;;;;;;;;;;;13.50;99.10;;;;;;5092564;28;19915;-67
2021/08/18 10:13:55;;;;;;;;;;;13.40;99.00;;;;;;5092502;28;19915;-66
2021/08/18 10:16:22;;;;;;;;;;;13.40;99.10;;;;;;5092451;28;19991;-67
2021/08/18 10:18:49;;;;;;;;;;;13.40;99.10;;;;;;5092133;28;19916;-66
2021/08/18 10:21:16;;;;;;;;;;;13.40;99.30;;;;;;5092233;28;19957;-67
2021/08/18 10:23:59;;;;;;;;;;;13.40;99.50;;;;;;5073486;28;19912;-66
2021/08/18 10:26:33;;;;;;;;;;;13.40;99.70;;;;;;5092228;28;20304;-66
2021/08/18 10:29:04;;;;;;;;;;;13.40;99.70;;;;;;5092206;28;19991;-66
2021/08/18 10:31:46;;;;;;;;;;;13.40;99.60;;;;;;5091995;28;20188;-66
2021/08/18 10:34:19;;;;;;;;;;;13.40;99.50;;;;;;5092109;28;19912;-66
2021/08/18 10:36:48;;;;;;;;;;;13.40;99.60;;;;;;5091894;28;19951;-66
2021/08/18 10:39:26;;;;;;;;;;;13.40;99.50;;;;;;5091429;28;19916;-66
2021/08/18 10:41:57;;;;;;;;;;;13.40;99.50;;;;;;5091807;28;19912;-66
2021/08/18 10:44:37;;;;;;;;;;;13.40;99.60;;;;;;5092196;28;19908;-67
2021/08/18 10:47:23;;;;;;;;;;;13.40;99.80;;;;;;5092007;28;20156;-67
2021/08/18 10:49:57;;;;;;;;;;;13.40;99.90;;;;;;5091874;28;19908;-65
2021/08/18 10:52:29;;;;;;;;;;;13.40;99.90;;;;;;5091351;28;20430;-66
2021/08/18 10:55:02;;;;;;;;;;;13.40;99.90;;;;;;5091813;28;19912;-67
2021/08/18 10:57:36;;;;;;;;;;;13.40;99.90;;;;;;5096027;28;19908;-66
2021/08/18 11:00:16;;;;;;;;;;;13.40;99.90;;;;;;5095805;28;20367;-66
2021/08/18 11:02:48;;;;;;;;;;;13.30;99.90;;;;;;5095969;28;19908;-66
2021/08/18 11:05:15;;;;;;;;;;;13.40;99.90;;;;;;5095794;28;19923;-67
2021/08/18 11:08:00;;;;;;;;;;;13.40;99.90;;;;;;5094855;28;20274;-67
2021/08/18 11:10:27;;;;;;;;;;;13.30;99.90;;;;;;5095641;28;19908;-67
2021/08/18 11:12:57;;;;;;;;;;;13.30;99.90;;;;;;5095495;28;19918;-67
2021/08/18 11:15:26;;;;;;;;;;;13.30;99.90;;;;;;5095566;28;19990;-67
2021/08/18 11:17:57;;;;;;;;;;;13.20;99.90;;;;;;5095407;28;19939;-66
2021/08/18 11:20:28;;;;;;;;;;;13.10;99.90;;;;;;5095287;28;19912;-66
2021/08/18 11:22:56;;;;;;;;;;;13.10;99.90;;;;;;5094948;28;20004;-66
2021/08/18 11:25:23;;;;;;;;;;;13.00;99.90;;;;;;5095398;28;19939;-66
2021/08/18 11:27:50;;;;;;;;;;;13.10;99.90;;;;;;5095368;28;19912;-66
2021/08/18 11:30:23;;;;;;;;;;;13.00;99.90;;;;;;5095785;28;19915;-66
2021/08/18 11:32:50;;;;;;;;;;;13.00;99.90;;;;;;5095310;28;19908;-66
2021/08/18 11:35:37;;;;;;;;;;;13.00;99.90;;;;;;5095084;28;19915;-66
2021/08/18 11:38:04;;;;;;;;;;;13.00;99.90;;;;;;5094414;28;19919;-67
2021/08/18 11:40:31;;;;;;;;;;;13.00;99.90;;;;;;5095059;28;19920;-66
2021/08/18 11:42:58;;;;;;;;;;;13.00;99.90;;;;;;5095278;28;19915;-66
2021/08/18 11:45:24;;;;;;;;;;;13.00;99.90;;;;;;5095392;28;19912;-66
2021/08/18 11:47:51;;;;;;;;;;;13.00;99.90;;;;;;5094828;28;19924;-66
2021/08/18 11:50:18;;;;;;;;;;;13.00;99.90;;;;;;5095011;28;19909;-66
2021/08/18 11:52:45;;;;;;;;;;;13.10;99.90;;;;;;5094651;28;19908;-65
2021/08/18 11:55:12;;;;;;;;;;;13.00;99.90;;;;;;5094724;28;19947;-66
2021/08/18 11:57:38;;;;;;;;;;;13.10;99.90;;;;;;5094518;28;19908;-67
2021/08/18 12:00:06;;;;;;;;;;;13.00;99.90;;;;;;5094674;28;19916;-67
2021/08/18 12:02:34;;;;;;;;;;;13.00;99.90;;;;;;5094758;28;19908;-66
2021/08/18 12:05:02;;;;;;;;;;;13.00;99.90;;;;;;5094881;28;19916;-67
2021/08/18 12:07:30;;;;;;;;;;;13.00;99.90;;;;;;5093880;28;19909;-67
2021/08/18 12:10:12;;;;;;;;;;;13.00;99.90;;;;;;5095242;28;19908;-66
2021/08/18 12:12:38;;;;;;;;;;;13.00;99.90;;;;;;5094769;28;20287;-65
2021/08/18 12:15:10;;;;;;;;;;;13.00;99.90;;;;;;5094987;28;20070;-66
2021/08/18 12:17:43;;;;;;;;;;;13.00;99.90;;;;;;5076552;28;19951;-67
2021/08/18 12:20:23;;;;;;;;;;;13.00;99.90;;;;;;5094704;28;19923;-66
2021/08/18 12:22:50;;;;;;;;;;;13.00;99.90;;;;;;5094213;28;19961;-65
2021/08/18 12:25:17;;;;;;;;;;;13.00;99.90;;;;;;5094961;28;19962;-66
2021/08/18 12:27:44;;;;;;;;;;;13.00;99.90;;;;;;5094956;28;19962;-65
2021/08/18 12:30:12;;;;;;;;;;;13.00;99.90;;;;;;5094684;28;20363;-67
2021/08/18 12:32:39;;;;;;;;;;;13.00;99.90;;;;;;5095929;28;19908;-66
2021/08/18 12:35:07;;;;;;;;;;;13.00;99.90;;;;;;5095944;28;20263;-66
2021/08/18 12:37:42;;;;;;;;;;;13.00;99.90;;;;;;5092839;28;19947;-65
2021/08/18 12:40:11;;;;;;;;;;;13.00;99.90;;;;;;5094272;28;19917;-66
2021/08/18 12:42:43;;;;;;;;;;;12.90;99.90;;;;;;5094170;28;19950;-64
2021/08/18 12:45:17;;;;;;;;;;;12.90;99.90;;;;;;5093976;28;19958;-64
2021/08/18 12:47:52;;;;;;;;;;;12.90;99.90;;;;;;5093719;28;19924;-66
2021/08/18 12:50:29;;;;;;;;;;;12.90;99.90;;;;;;5093955;28;20304;-65
2021/08/18 12:52:56;;;;;;;;;;;12.90;99.90;;;;;;5093849;28;19976;-65
2021/08/18 12:55:23;;;;;;;;;;;12.80;99.90;;;;;;5093852;28;20433;-66
2021/08/18 12:57:50;;;;;;;;;;;12.80;99.90;;;;;;5093277;28;19908;-65
2021/08/18 13:00:17;;;;;;;;;;;12.80;99.90;;;;;;5093688;28;19916;-66
2021/08/18 13:02:44;;;;;;;;;;;12.80;99.90;;;;;;5093560;28;19916;-66
2021/08/18 13:05:10;;;;;;;;;;;12.80;99.90;;;;;;5093494;28;19908;-66
2021/08/18 13:07:37;;;;;;;;;;;12.80;99.90;;;;;;5093542;28;19912;-66
2021/08/18 13:10:05;;;;;;;;;;;12.90;99.90;;;;;;5093625;28;19908;-66
2021/08/18 13:12:32;;;;;;;;;;;12.90;99.90;;;;;;5093417;28;20011;-66
2021/08/18 13:14:58;;;;;;;;;;;12.90;99.90;;;;;;5093380;28;19916;-66
2021/08/18 13:17:26;;;;;;;;;;;12.90;99.90;;;;;;5093418;28;19914;-65
2021/08/18 13:19:54;;;;;;;;;;;12.90;99.90;;;;;;5092703;28;20358;-66
2021/08/18 13:22:21;;;;;;;;;;;12.90;99.90;;;;;;5093292;28;19936;-66
2021/08/18 13:24:47;;;;;;;;;;;12.90;99.90;;;;;;5093148;28;19908;-66
2021/08/18 13:27:14;;;;;;;;;;;12.90;99.90;;;;;;5093316;28;20362;-66
2021/08/18 13:29:41;;;;;;;;;;;12.90;99.90;;;;;;5093123;28;19908;-66
2021/08/18 13:32:07;;;;;;;;;;;12.90;99.90;;;;;;5093104;28;19915;-65
2021/08/18 13:34:34;;;;;;;;;;;12.90;99.90;;;;;;5092909;28;19920;-66
2021/08/18 13:37:01;;;;;;;;;;;12.90;99.90;;;;;;5093016;28;19908;-66
2021/08/18 13:39:28;;;;;;;;;;;12.90;99.90;;;;;;5092948;28;19917;-65
2021/08/18 13:41:54;;;;;;;;;;;12.90;99.90;;;;;;5093075;28;19971;-65
2021/08/18 13:44:23;;;;;;;;;;;13.00;99.90;;;;;;5093070;28;19915;-66
2021/08/18 13:46:49;;;;;;;;;;;13.00;99.90;;;;;;5092786;28;19920;-65
2021/08/18 13:49:17;;;;;;;;;;;13.00;99.90;;;;;;5092831;28;19965;-64
2021/08/18 13:51:44;;;;;;;;;;;13.00;99.90;;;;;;5092781;28;20356;-65
2021/08/18 13:54:10;;;;;;;;;;;13.00;99.90;;;;;;5092769;28;19915;-66
2021/08/18 13:56:38;;;;;;;;;;;12.90;99.90;;;;;;5092795;28;20205;-66
2021/08/18 13:59:06;;;;;;;;;;;12.90;99.90;;;;;;5092716;28;19923;-66
2021/08/18 14:01:33;;;;;;;;;;;12.90;99.90;;;;;;5092624;28;19912;-65
2021/08/18 14:04:00;;;;;;;;;;;12.90;99.90;;;;;;5092472;28;19947;-65
2021/08/18 14:06:28;;;;;;;;;;;12.90;99.90;;;;;;5092547;28;20278;-65
2021/08/18 14:08:54;;;;;;;;;;;12.80;99.90;;;;;;5074454;28;19913;-65
2021/08/18 14:11:21;;;;;;;;;;;12.80;99.90;;;;;;5092660;28;19953;-66
2021/08/18 14:13:48;;;;;;;;;;;12.90;99.90;;;;;;5092558;28;19908;-66
2021/08/18 14:16:15;;;;;;;;;;;12.80;99.90;;;;;;5092563;28;20278;-66
2021/08/18 14:18:42;;;;;;;;;;;12.80;99.90;;;;;;5092291;28;20007;-66
2021/08/18 14:21:08;;;;;;;;;;;12.80;99.90;;;;;;5092115;28;19915;-64